Date,TemperatureHighF,TemperatureAvgF,TemperatureLowF,DewpointHighF,DewpointAvgF,DewpointLowF,HumidityHigh,HumidityAvg,HumidityLow,PressureMaxIn,PressureMinIn,WindSpeedMaxMPH,WindSpeedAvgMPH,GustSpeedMaxMPH,PrecipitationSumIn
2012-1-1,41.5,35.1,28.1,31.8,16.8,0.8,74,49,19,30.58,29.94,30,9,32,0.01
2012-1-2,31.2,25.0,19.2,12.8,7.8,4.3,64,48,33,30.66,30.55,22,4,22,0.00
2012-1-3,47.7,32.0,14.3,28.2,18.3,5.3,76,58,38,30.55,29.99,26,6,27,0.00
2012-1-4,49.4,41.6,33.4,29.4,27.4,25.5,75,58,41,30.29,30.06,14,5,14,0.00
2012-1-5,62.1,45.4,35.2,33.7,28.5,25.0,67,52,28,30.09,29.69,15,6,15,0.00
2012-1-6,53.7,44.9,36.6,33.6,28.5,20.8,73,53,37,30.04,29.67,24,5,25,0.00
2012-1-7,44.6,35.9,27.4,25.9,22.3,18.9,72,58,43,30.28,30.04,9,2,9,0.00
2012-1-8,44.9,35.5,26.1,28.8,24.7,22.0,86,66,44,30.37,30.28,7,1,7,0.00
2012-1-9,51.7,38.5,27.9,30.1,24.9,21.4,79,60,34,30.30,30.06,15,4,15,0.00
2012-1-10,54.4,42.5,31.6,32.5,27.6,22.9,72,56,41,30.06,29.69,17,4,17,0.00
2012-1-11,41.6,32.1,19.9,32.4,24.1,10.7,88,72,59,30.00,29.60,30,7,30,0.00
2012-1-12,19.9,14.1,9.6,9.9,5.5,-0.7,76,68,60,30.10,29.98,25,8,25,0.00
2012-1-13,27.5,17.3,7.3,14.1,4.7,0.3,76,59,31,30.19,29.94,11,3,13,0.00
2012-1-14,43.6,31.9,22.9,27.4,17.5,14.1,70,56,39,30.20,29.89,15,3,15,0.00
2012-1-15,55.8,41.2,27.0,28.0,22.5,15.5,70,49,29,30.16,29.74,32,8,32,0.00
2012-1-16,44.6,35.9,23.3,28.3,24.1,14.9,73,62,47,29.90,29.68,20,6,22,0.00
2012-1-17,23.2,17.3,10.0,18.0,11.3,4.9,89,77,59,30.42,29.88,21,5,21,0.00
2012-1-18,33.7,21.8,6.8,23.5,14.0,3.1,86,72,60,30.39,29.86,25,7,26,0.33
2012-1-19,19.4,8.9,5.4,12.1,-0.5,-4.6,75,65,57,30.23,29.97,20,6,22,0.00
2012-1-20,15.6,11.9,6.8,6.9,4.1,-0.9,76,70,65,30.30,30.00,15,5,15,0.00
2012-1-21,24.0,15.4,11.0,18.1,10.1,4.9,86,79,75,30.30,29.90,22,6,22,0.00
2012-1-22,48.1,38.6,28.1,41.9,34.9,25.4,95,87,78,29.57,29.39,17,5,18,0.00
2012-1-23,32.0,29.7,27.2,26.8,23.8,21.5,89,78,71,30.04,29.57,24,6,26,0.00
2012-1-24,37.5,30.6,16.2,30.9,25.8,13.7,92,83,74,30.30,30.18,15,3,15,0.00
2012-1-25,43.7,36.4,30.7,33.4,30.3,27.5,91,79,65,30.25,29.94,9,2,9,0.00
2012-1-26,48.1,38.2,29.5,32.1,28.7,24.6,91,69,50,29.95,29.86,22,5,22,0.00
2012-1-27,40.2,32.0,28.9,30.9,24.2,18.8,87,73,62,30.23,29.89,16,3,16,0.00
2012-1-28,44.8,32.7,22.0,20.8,16.0,11.0,79,53,26,30.29,30.17,23,5,25,0.00
2012-1-29,41.2,33.2,26.2,20.9,15.6,12.1,61,48,38,30.27,29.96,13,3,13,0.00
2012-1-30,67.0,52.1,40.7,27.9,25.7,20.5,54,38,20,29.96,29.73,21,8,21,0.00
2012-1-31,59.1,49.9,40.2,39.5,33.4,29.4,91,56,37,30.05,29.74,15,4,16,0.00
2012-2-1,60.1,46.3,33.4,31.1,27.4,23.6,75,50,27,30.14,30.05,10,3,12,0.00
2012-2-2,55.9,41.9,26.8,32.3,27.1,21.1,80,57,36,30.25,30.14,9,2,9,0.00
2012-2-3,45.5,40.7,34.7,38.4,34.8,30.3,94,81,57,30.26,30.10,27,8,30,0.59
2012-2-4,34.5,31.7,30.8,32.7,30.6,29.5,96,96,93,30.38,30.11,18,3,20,0.43
2012-2-5,31.1,25.4,21.1,29.7,23.9,19.9,95,94,92,30.46,30.36,0,0,0,0.11
2012-2-6,34.7,25.4,16.5,28.9,22.3,14.7,95,88,75,30.36,30.22,8,0,8,0.05
2012-2-7,34.2,30.4,26.9,30.2,27.5,23.8,93,89,76,30.53,30.25,15,7,18,0.01
2012-2-8,28.8,23.7,20.4,23.8,18.9,16.7,88,82,68,30.56,30.41,9,2,10,0.01
2012-2-9,35.7,29.3,22.6,30.0,25.4,18.5,92,85,77,30.41,30.10,17,4,17,0.00
2012-2-10,22.8,13.7,6.6,15.1,3.1,-3.3,72,62,57,30.62,30.18,20,7,20,0.00
2012-2-11,17.0,8.6,1.2,3.1,-1.6,-6.0,73,63,47,30.86,30.62,12,4,16,0.00
2012-2-12,32.4,18.1,1.5,15.5,6.5,-3.6,81,62,36,30.72,30.13,20,5,20,0.01
2012-2-13,31.5,29.2,25.2,30.5,26.5,12.9,96,90,49,30.13,29.75,26,7,27,0.00
2012-2-14,43.4,31.8,19.3,36.0,28.3,17.6,96,87,72,29.91,29.81,12,3,15,0.03
2012-2-15,39.3,34.4,28.0,34.7,31.1,26.7,96,88,81,30.12,29.88,11,2,11,0.03
2012-2-16,41.0,34.7,27.9,32.7,26.9,23.5,88,74,57,30.31,30.12,12,4,12,0.00
2012-2-17,44.2,37.4,29.5,30.1,27.4,22.7,81,67,49,30.25,30.06,16,4,16,0.00
2012-2-18,37.1,30.4,23.4,25.1,21.7,17.8,82,70,50,30.31,30.18,9,2,10,0.00
2012-2-19,44.7,32.1,21.2,29.7,24.7,18.9,92,75,49,30.18,30.01,16,4,16,0.00
2012-2-20,42.3,37.8,32.5,40.3,32.9,24.5,95,83,70,30.03,29.60,26,9,28,0.14
2012-2-21,47.4,39.0,32.7,38.0,30.7,27.9,95,73,49,29.88,29.63,19,5,19,0.00
2012-2-22,52.9,44.0,36.8,37.6,33.1,27.4,81,65,53,29.65,29.38,14,3,14,0.00
2012-2-23,44.0,40.0,31.7,41.0,36.6,29.7,93,88,77,29.68,29.24,28,5,28,0.02
2012-2-24,40.6,32.8,26.9,30.2,25.3,17.4,91,75,47,30.27,29.96,20,5,20,0.00
2012-2-25,37.4,28.7,18.8,25.9,19.5,13.1,80,68,56,30.35,29.82,30,7,30,0.01
2012-2-26,55.1,46.3,35.3,28.9,26.5,24.3,68,47,31,30.09,29.75,27,7,27,0.00
2012-2-27,38.7,31.6,21.0,23.8,19.0,13.3,75,60,46,30.55,30.33,12,3,12,0.00
2012-2-28,53.2,42.2,31.6,51.5,35.5,22.5,95,77,61,30.33,29.39,28,10,28,0.26
2012-2-29,39.0,34.3,29.6,28.2,26.2,24.4,86,72,59,29.89,29.59,30,7,30,0.00
2012-3-1,54.6,37.7,25.1,37.5,30.3,23.2,94,77,44,29.88,29.61,18,4,18,0.00
2012-3-2,47.9,37.6,30.4,31.6,26.4,19.0,92,67,36,29.93,29.65,23,7,23,0.00
2012-3-3,41.6,32.8,26.0,22.2,20.0,16.9,74,60,38,30.00,29.92,23,5,23,0.00
2012-3-4,53.4,36.3,23.6,36.2,25.3,20.5,90,66,40,30.23,29.85,31,4,34,0.00
2012-3-5,55.6,39.7,24.9,30.7,24.6,20.4,88,58,30,30.30,29.84,29,7,29,0.00
2012-3-6,70.6,59.4,49.1,45.9,37.2,30.8,52,44,30,29.84,29.60,37,12,37,0.00
2012-3-7,64.8,46.2,34.3,52.5,37.9,25.9,84,73,61,30.09,29.56,35,9,35,0.00
2012-3-8,50.5,38.9,27.2,26.2,17.9,7.9,80,48,19,30.44,30.08,17,4,17,0.00
2012-3-9,61.0,45.4,29.4,27.8,20.3,12.0,67,39,19,30.58,30.31,21,5,21,0.00
2012-3-10,67.4,53.8,41.9,31.0,25.5,17.6,55,36,15,30.32,30.05,30,10,30,0.00
2012-3-11,50.4,47.3,45.4,46.3,40.2,29.8,96,79,47,30.07,29.74,19,7,19,0.25
2012-3-12,66.0,52.8,44.2,50.4,46.5,42.6,96,81,54,29.92,29.69,16,5,17,0.01
2012-3-13,79.0,60.5,42.7,53.4,46.1,40.9,94,65,29,29.99,29.78,26,6,26,0.00
2012-3-14,79.2,67.8,58.5,60.3,53.4,42.6,93,63,35,29.88,29.74,21,7,22,0.00
2012-3-15,79.0,64.8,51.4,62.3,53.5,42.2,90,68,45,29.96,29.85,15,3,15,0.00
2012-3-16,76.9,66.8,57.4,63.0,59.6,55.5,95,79,58,29.90,29.76,23,7,23,0.00
2012-3-17,79.1,70.2,62.6,63.4,61.1,58.8,88,74,55,29.81,29.67,34,14,34,0.00
2012-3-18,78.5,69.4,64.0,61.8,60.0,58.7,83,73,53,29.74,29.66,35,13,35,0.00
2012-3-19,72.7,63.9,57.1,60.6,56.8,48.2,93,79,43,29.67,29.52,29,10,29,0.13
2012-3-20,57.6,56.1,54.7,55.2,54.1,53.3,96,93,87,29.85,29.65,13,4,14,0.35
2012-3-21,62.3,58.6,54.8,59.8,56.7,53.7,98,93,83,29.92,29.80,23,4,23,0.22
2012-3-22,64.6,56.8,47.7,57.9,49.3,43.7,97,78,50,29.94,29.81,26,4,26,0.10
2012-3-23,69.5,57.3,46.7,51.7,47.3,43.6,96,73,41,29.93,29.85,10,2,10,0.09
2012-3-24,77.8,64.3,51.0,49.7,44.0,38.0,79,51,24,29.97,29.89,11,2,11,0.00
2012-3-25,79.3,65.2,47.0,54.0,47.2,41.5,85,54,33,30.05,29.92,12,2,12,0.00
2012-3-26,79.5,67.7,57.2,56.5,52.7,48.5,82,60,39,29.99,29.74,28,9,28,0.03
2012-3-27,77.7,69.8,63.0,57.8,43.8,26.2,72,44,20,29.89,29.71,24,6,24,0.00
2012-3-28,75.3,64.6,49.6,43.8,39.8,34.8,72,42,26,29.99,29.85,10,3,15,0.00
2012-3-29,68.5,60.3,54.5,61.5,54.4,43.4,95,81,49,29.87,29.57,23,6,23,1.40
2012-3-30,75.5,63.0,54.1,58.4,54.0,48.9,97,75,41,29.79,29.64,11,2,11,0.01
2012-3-31,85.9,70.2,56.4,62.7,53.2,46.3,87,60,26,29.74,29.58,21,7,22,0.00
2012-4-1,86.7,73.5,59.5,64.1,59.1,51.8,88,63,33,29.58,29.36,23,6,23,0.00
2012-4-2,89.0,75.3,62.2,65.4,59.6,52.3,86,61,34,29.71,29.38,22,7,22,0.00
2012-4-3,70.8,60.5,51.3,53.0,48.8,44.9,85,67,47,29.89,29.71,20,5,23,0.00
2012-4-4,62.9,56.3,51.2,47.7,46.0,44.4,78,69,56,29.88,29.75,17,4,17,0.01
2012-4-5,64.5,54.1,45.7,48.5,40.6,34.4,91,63,35,30.06,29.82,15,3,18,0.10
2012-4-6,62.9,51.8,40.0,40.2,36.2,32.7,76,57,37,30.18,29.97,16,4,20,0.00
2012-4-7,63.2,53.0,45.9,49.9,37.5,24.2,95,60,26,30.33,29.99,15,3,17,0.24
2012-4-8,68.3,56.3,44.0,38.0,31.1,24.8,57,39,26,30.37,30.10,21,4,21,0.00
2012-4-9,67.5,57.4,46.8,36.4,26.1,20.9,59,31,19,30.21,30.10,12,2,14,0.00
2012-4-10,60.4,49.5,38.4,25.9,21.1,17.4,50,33,22,30.28,30.16,12,2,13,0.00
2012-4-11,57.2,45.2,32.3,26.5,21.1,17.5,58,39,23,30.38,30.18,12,2,14,0.00
2012-4-12,50.7,46.7,40.2,46.9,36.7,25.5,91,69,48,30.19,29.89,21,4,21,0.43
2012-4-13,74.2,59.8,48.2,61.2,49.3,44.9,92,72,37,29.89,29.70,25,7,25,0.15
2012-4-14,68.8,59.3,52.4,64.7,57.1,44.9,97,93,62,29.80,29.37,26,2,26,2.67
2012-4-15,71.1,63.3,46.6,64.6,53.1,34.1,92,72,27,29.47,29.26,38,12,43,0.02
2012-4-16,62.0,51.0,43.8,41.7,39.6,36.5,92,67,45,30.23,29.46,26,4,26,0.01
2012-4-17,70.5,55.6,40.7,51.6,45.0,38.0,92,70,45,30.30,30.05,22,6,23,0.02
2012-4-18,74.3,63.8,52.6,55.0,51.2,45.5,87,64,48,30.06,29.83,21,4,21,0.05
2012-4-19,66.7,56.6,44.9,58.0,51.5,39.9,91,83,69,29.88,29.62,20,4,20,0.02
2012-4-20,57.2,48.4,39.8,40.3,34.5,28.1,87,61,37,30.09,29.88,20,5,23,0.00
2012-4-21,70.8,55.1,42.0,44.4,35.9,28.9,78,52,25,30.07,29.85,18,4,20,0.00
2012-4-22,57.3,50.9,45.6,40.9,37.7,33.1,74,61,43,30.24,29.97,21,4,21,0.00
2012-4-23,68.0,54.6,39.7,42.8,36.1,29.3,86,54,25,30.24,29.88,9,2,9,0.00
2012-4-24,86.9,67.3,49.4,55.1,46.7,35.6,75,50,24,29.88,29.50,12,2,14,0.00
2012-4-25,91.3,75.0,58.4,61.5,51.2,40.9,85,49,22,29.71,29.43,16,2,16,0.00
2012-4-26,73.7,66.7,59.7,49.6,44.2,39.0,63,45,33,29.97,29.71,16,3,17,0.00
2012-4-27,61.0,54.0,48.0,46.4,40.4,34.8,87,61,44,29.97,29.59,31,7,33,0.43
2012-4-28,60.9,53.2,48.3,50.7,47.4,44.9,91,81,66,30.07,29.64,12,3,13,0.01
2012-4-29,51.2,48.9,47.4,47.5,46.6,45.4,94,92,87,30.06,30.01,13,2,13,0.00
2012-4-30,66.5,60.2,51.5,56.0,53.4,49.1,92,79,66,30.02,29.82,12,4,13,0.00
2012-5-1,83.3,68.9,55.8,67.5,61.3,53.5,96,78,50,29.83,29.53,26,8,26,0.00
2012-5-2,81.2,72.4,63.7,69.4,65.1,56.8,90,78,63,29.69,29.54,21,6,21,0.00
2012-5-3,80.2,71.3,60.2,71.2,65.6,57.8,95,83,68,29.79,29.65,22,5,22,0.27
2012-5-4,86.4,71.4,67.7,71.2,67.3,65.4,95,88,53,29.77,29.65,12,3,16,0.00
2012-5-5,89.3,83.2,70.8,73.4,69.6,65.4,94,65,50,29.76,29.64,24,8,26,0.00
2012-5-6,77.9,68.8,60.3,66.5,62.1,58.5,94,80,60,29.97,29.66,18,5,27,0.51
2012-5-7,69.8,61.8,55.6,58.8,47.4,40.5,94,61,41,30.06,29.92,17,4,17,0.00
2012-5-8,67.8,57.8,50.0,44.7,41.8,37.4,75,56,35,30.05,29.96,14,2,17,0.00
2012-5-9,68.4,57.5,46.1,46.6,42.6,39.6,83,59,38,30.09,29.92,13,2,14,0.00
2012-5-10,80.9,67.1,50.7,55.0,49.0,42.5,79,54,34,29.93,29.74,27,8,27,0.00
2012-5-11,74.8,67.3,56.9,55.2,50.6,34.1,71,56,38,30.17,29.79,21,4,22,0.00
2012-5-12,70.6,60.2,51.8,44.1,40.0,37.2,66,49,31,30.30,30.17,13,4,16,0.00
2012-5-13,77.0,65.8,54.1,44.0,38.0,31.9,58,37,21,30.26,30.11,12,2,12,0.00
2012-5-14,82.0,69.4,55.2,51.1,45.2,36.5,72,44,26,30.12,29.93,20,2,20,0.00
2012-5-15,88.3,73.4,62.7,55.3,45.0,31.4,65,40,20,29.99,29.87,15,4,16,0.00
2012-5-16,79.9,66.9,53.4,43.8,37.5,29.3,50,36,16,30.10,29.94,12,3,13,0.00
2012-5-17,87.3,72.1,57.7,56.2,48.9,43.4,65,46,27,29.96,29.74,30,10,31,0.00
2012-5-18,87.2,76.6,65.0,59.7,55.6,51.7,65,49,34,29.78,29.64,32,11,33,0.00
2012-5-19,84.3,76.2,69.1,63.9,59.0,52.9,70,56,43,29.77,29.65,30,12,30,0.02
2012-5-20,77.8,64.2,59.4,58.4,53.6,45.2,89,71,42,30.11,29.75,19,4,20,0.00
2012-5-21,78.0,69.1,50.9,44.1,40.9,37.2,65,37,25,30.27,30.06,11,2,11,0.00
2012-5-22,82.5,69.7,57.9,49.3,45.6,42.9,61,44,26,30.07,29.67,27,8,27,0.00
2012-5-23,90.7,78.3,65.7,61.4,54.9,46.8,54,45,34,29.67,29.34,38,15,42,0.00
2012-5-24,79.6,71.7,60.9,63.3,59.5,54.2,82,66,53,29.74,29.31,28,5,29,0.00
2012-5-25,77.5,66.1,59.1,59.8,55.6,46.9,90,71,35,29.92,29.74,18,3,18,0.01
2012-5-26,92.3,78.1,64.0,73.5,67.6,57.4,86,71,52,29.88,29.71,29,9,29,0.00
2012-5-27,91.5,81.5,72.2,69.0,64.3,58.2,80,58,40,29.75,29.55,32,12,32,0.00
2012-5-28,84.8,74.9,64.7,64.3,54.2,38.6,89,53,21,29.81,29.57,20,3,21,0.00
2012-5-29,78.3,68.1,59.4,50.0,44.7,40.6,66,45,27,29.98,29.78,16,2,16,0.00
2012-5-30,74.1,61.3,51.0,57.4,48.1,41.9,92,64,35,30.00,29.74,14,3,14,0.30
2012-5-31,59.4,54.8,49.9,57.0,49.2,45.0,95,82,64,30.04,29.84,20,4,20,0.21
2012-6-1,67.1,57.6,46.3,50.2,45.6,41.0,88,66,43,30.03,29.85,10,2,10,0.00
2012-6-2,81.6,67.3,51.1,55.9,47.8,41.4,84,54,26,29.85,29.76,15,2,15,0.00
2012-6-3,87.2,73.9,59.3,64.7,56.7,46.7,69,56,38,29.81,29.68,20,3,20,0.00
2012-6-4,88.7,79.7,68.2,64.5,59.1,54.1,82,52,33,29.85,29.73,19,4,19,0.00
2012-6-5,86.3,75.6,64.8,62.5,57.7,53.0,85,57,33,29.92,29.80,12,2,12,0.00
2012-6-6,85.0,74.5,62.6,60.2,56.7,53.2,76,55,39,29.99,29.84,16,3,16,0.00
2012-6-7,84.2,73.4,62.3,58.4,55.1,52.5,78,55,36,30.06,29.95,15,3,15,0.00
2012-6-8,86.3,75.3,63.9,58.0,53.7,50.9,65,48,31,30.00,29.78,20,6,20,0.00
2012-6-9,89.0,77.5,64.5,61.5,56.8,53.0,67,50,32,29.81,29.57,28,9,28,0.00
2012-6-10,88.5,78.5,67.2,72.4,65.2,60.5,94,65,49,29.71,29.55,30,9,30,0.91
2012-6-11,80.3,72.3,63.4,65.7,56.4,48.8,97,61,36,30.03,29.67,15,2,15,0.25
2012-6-12,76.8,67.8,59.1,53.4,49.0,43.6,64,51,40,30.19,30.02,13,2,13,0.00
2012-6-13,82.3,71.7,59.3,58.8,53.9,47.3,79,55,40,30.08,29.80,23,7,23,0.00
2012-6-14,88.7,78.0,69.8,69.5,65.6,58.1,84,67,50,29.83,29.68,31,11,31,0.00
2012-6-15,75.4,70.8,65.2,68.2,65.6,63.1,93,84,73,29.89,29.81,14,2,16,0.34
2012-6-16,78.2,70.8,65.0,69.8,66.0,63.1,94,85,70,29.94,29.87,14,1,15,0.67
2012-6-17,89.3,77.2,64.5,75.6,68.3,62.8,96,76,51,29.94,29.51,24,7,24,0.00
2012-6-18,92.1,83.5,75.7,73.5,70.0,67.0,76,64,51,29.58,29.46,25,10,25,0.00
2012-6-19,89.0,81.9,73.6,72.8,68.2,65.6,78,64,50,29.70,29.58,32,12,32,0.00
2012-6-20,84.7,76.1,61.9,72.4,67.5,59.0,93,75,64,29.97,29.66,20,8,24,0.89
2012-6-21,81.3,70.2,59.9,60.8,58.4,53.3,95,70,40,30.07,29.93,12,2,12,0.00
2012-6-22,82.3,75.9,63.9,63.3,60.0,53.8,77,59,41,30.04,29.87,12,3,13,0.00
2012-6-23,85.0,71.4,63.5,71.9,64.5,58.3,92,79,62,29.97,29.76,25,5,25,0.37
2012-6-24,91.7,82.3,71.0,76.2,71.5,66.9,90,71,53,29.84,29.76,20,3,20,0.00
2012-6-25,85.3,78.8,71.3,75.1,71.1,64.1,89,78,67,29.89,29.82,17,4,17,0.00
2012-6-26,85.9,75.6,64.8,72.2,63.3,53.3,79,66,57,29.87,29.65,21,6,21,0.00
2012-6-27,98.5,87.3,73.6,77.5,72.9,68.4,84,64,48,29.68,29.61,22,7,22,0.00
2012-6-28,95.8,87.5,79.5,80.8,74.9,68.8,78,67,56,29.81,29.67,18,3,19,0.00
2012-6-29,92.8,84.4,75.8,76.7,70.4,63.3,83,64,49,29.80,29.67,13,2,13,0.00
2012-6-30,92.9,82.1,70.5,76.4,70.8,63.5,89,70,51,29.78,29.69,14,2,27,0.00
2012-7-1,91.8,82.1,70.7,76.9,69.1,58.6,86,65,47,29.87,29.75,15,4,15,0.14
2012-7-2,92.0,83.4,73.7,75.9,70.2,66.5,79,65,47,29.87,29.76,12,4,17,0.00
2012-7-3,95.3,85.1,76.9,74.8,70.8,66.7,77,63,44,29.81,29.69,16,5,16,0.00
2012-7-4,97.0,87.0,78.6,75.4,68.5,61.6,69,55,38,29.77,29.70,22,6,22,0.00
2012-7-5,97.3,87.4,79.8,74.9,68.6,62.7,65,54,42,29.85,29.75,15,4,15,0.00
2012-7-6,99.2,87.4,77.3,74.9,68.8,65.2,69,55,35,29.89,29.82,18,4,18,0.00
2012-7-7,93.8,84.0,75.4,77.6,70.1,63.6,83,64,48,29.96,29.86,14,3,14,0.00
2012-7-8,84.2,77.0,70.6,71.6,67.5,64.0,85,73,57,30.05,29.94,14,4,14,0.00
2012-7-9,88.4,78.3,68.8,66.8,64.0,59.8,80,63,40,30.06,29.97,14,4,14,0.00
2012-7-10,85.3,75.6,64.8,65.7,59.2,53.3,83,59,36,30.08,29.99,15,4,15,0.00
2012-7-11,89.0,76.9,64.1,67.3,63.5,58.8,86,65,43,30.05,29.93,10,2,10,0.00
2012-7-12,93.0,80.2,67.4,70.8,66.0,62.4,85,64,39,29.95,29.86,10,2,10,0.00
2012-7-13,91.0,80.0,70.7,69.6,66.1,63.3,82,64,43,29.94,29.87,16,3,18,0.00
2012-7-14,95.3,82.1,68.3,72.4,67.6,63.8,87,64,37,29.97,29.86,12,2,12,0.00
2012-7-15,95.1,82.8,70.7,72.4,68.0,63.0,88,63,39,29.95,29.85,16,4,16,0.00
2012-7-16,92.3,82.7,72.5,71.4,66.7,61.8,71,59,46,29.88,29.72,22,5,22,0.00
2012-7-17,96.3,85.4,74.7,72.5,68.7,65.6,74,58,39,29.77,29.69,17,4,17,0.00
2012-7-18,97.1,86.2,76.9,72.7,67.6,63.2,67,55,38,29.79,29.71,12,3,13,0.00
2012-7-19,97.2,85.5,73.9,76.3,70.9,64.8,91,64,36,29.95,29.78,10,2,11,0.00
2012-7-20,92.5,81.7,70.5,72.4,68.0,62.4,88,65,42,30.03,29.95,9,2,10,0.00
2012-7-21,93.0,80.8,66.7,69.8,65.3,61.0,83,61,39,30.03,29.89,15,4,15,0.00
2012-7-22,101.5,86.8,74.5,68.1,64.1,58.2,70,50,25,29.98,29.84,18,5,18,0.00
2012-7-23,101.3,88.7,75.7,71.1,64.1,59.0,60,45,27,29.95,29.81,16,3,16,0.00
2012-7-24,99.2,89.7,81.4,69.9,66.5,62.9,58,47,34,29.84,29.67,17,6,18,0.00
2012-7-25,103.4,88.0,73.9,72.0,67.0,61.6,92,53,28,29.69,29.50,21,6,22,0.74
2012-7-26,92.4,79.9,70.9,73.9,69.9,65.9,95,74,45,29.83,29.66,8,2,11,0.18
2012-7-27,85.3,76.1,67.3,67.1,61.5,58.1,76,62,41,30.02,29.83,15,3,15,0.00
2012-7-28,89.0,76.9,64.9,66.1,63.0,59.8,86,64,43,30.08,29.88,16,4,16,0.01
2012-7-29,96.7,82.6,69.3,71.8,66.3,61.2,78,59,37,29.91,29.79,17,3,17,0.00
2012-7-30,94.1,81.0,73.1,74.9,71.2,64.5,92,74,39,29.90,29.79,10,2,10,0.00
2012-7-31,95.5,87.0,69.8,73.2,70.4,66.6,94,60,40,29.91,29.83,7,1,8,0.00
2012-8-1,96.4,83.2,70.4,72.3,67.3,61.7,80,60,38,29.87,29.71,10,2,10,0.00
2012-8-2,95.3,83.3,71.2,68.9,66.1,61.0,88,58,38,29.77,29.69,16,3,16,0.00
2012-8-3,93.3,81.6,70.8,73.5,69.4,66.7,88,68,44,29.79,29.66,15,4,15,0.00
2012-8-4,84.3,75.7,66.4,70.2,63.2,53.7,89,66,42,29.99,29.69,20,3,20,0.09
2012-8-5,85.5,73.4,62.5,60.4,55.5,51.1,77,55,32,30.18,29.99,13,2,13,0.00
2012-8-6,92.4,76.9,60.4,62.7,58.0,54.5,84,55,30,30.11,29.90,14,4,14,0.00
2012-8-7,100.4,87.8,72.3,67.2,60.1,55.2,74,41,24,29.91,29.80,16,3,20,0.00
2012-8-8,92.9,77.9,64.6,68.5,64.5,56.0,88,66,41,29.90,29.76,25,3,25,0.01
2012-8-9,83.8,73.3,66.7,65.0,61.5,56.3,92,69,40,29.97,29.87,18,4,18,1.08
2012-8-10,78.4,68.2,58.0,57.0,54.5,52.6,86,63,42,30.08,29.97,14,3,14,0.00
2012-8-11,80.2,67.4,54.6,59.4,55.5,51.9,91,68,43,30.06,29.90,12,2,14,0.01
2012-8-12,85.0,75.2,64.0,63.6,60.6,58.2,84,62,43,29.88,29.77,17,3,18,0.00
2012-8-13,78.3,68.6,62.1,62.1,57.8,54.1,92,71,44,30.05,29.88,16,3,16,0.00
2012-8-14,81.4,71.0,57.8,61.6,57.9,54.0,88,65,41,29.99,29.82,17,4,17,0.00
2012-8-15,91.6,74.8,58.5,67.4,62.0,56.5,94,68,41,29.86,29.66,22,6,22,0.00
2012-8-16,79.1,69.4,61.2,68.1,54.9,47.2,81,61,39,30.06,29.71,21,4,24,0.00
2012-8-17,79.9,67.0,55.1,50.8,46.5,42.2,74,50,29,30.11,29.97,11,1,11,0.00
2012-8-18,70.8,62.2,52.8,55.6,49.6,43.8,84,64,46,30.01,29.90,13,2,13,0.00
2012-8-19,79.8,66.2,52.0,53.4,49.6,45.9,89,59,32,30.06,29.94,14,2,14,0.00
2012-8-20,87.8,72.6,55.2,54.2,49.1,44.6,82,47,23,29.99,29.85,11,1,11,0.00
2012-8-21,90.5,74.2,59.3,58.1,53.9,49.5,75,53,26,29.98,29.89,10,2,11,0.00
2012-8-22,92.5,78.1,61.8,62.1,53.3,49.5,70,45,25,29.95,29.83,25,4,25,0.00
2012-8-23,90.0,80.8,70.4,62.3,56.2,49.9,54,43,35,29.91,29.78,23,6,23,0.00
2012-8-24,80.8,71.8,68.0,67.2,64.0,56.1,92,77,43,29.88,29.80,19,5,19,0.13
2012-8-25,70.1,68.3,66.3,68.8,66.3,63.1,97,94,87,29.87,29.80,22,4,22,1.42
2012-8-26,84.2,73.3,67.1,70.4,67.7,65.9,97,84,60,30.01,29.82,11,2,11,0.00
2012-8-27,89.5,77.6,64.9,71.1,66.2,61.0,95,70,42,30.11,30.00,10,1,11,0.00
2012-8-28,91.1,78.5,64.8,65.8,61.6,55.8,88,59,32,30.07,29.88,17,3,17,0.00
2012-8-29,92.9,79.7,68.6,64.5,60.6,58.6,72,54,33,29.93,29.80,20,4,20,0.00
2012-8-30,94.7,87.1,80.5,62.4,58.9,54.1,50,40,27,29.85,29.80,13,4,15,0.00
2012-8-31,90.1,77.3,65.3,70.3,64.4,57.9,82,66,43,29.93,29.85,8,1,11,0.00
2012-9-1,88.0,77.8,70.3,70.7,67.4,64.2,87,72,49,29.93,29.86,19,4,19,0.00
2012-9-2,89.2,75.9,62.5,68.1,63.4,56.7,85,67,44,29.91,29.80,10,1,10,0.00
2012-9-3,84.7,76.2,68.4,73.4,70.0,66.1,94,82,63,29.88,29.76,14,2,14,0.02
2012-9-4,94.4,80.8,67.1,74.0,70.0,65.3,95,72,45,29.83,29.65,17,3,17,0.00
2012-9-5,86.9,77.4,68.6,70.7,58.8,48.0,86,56,31,29.87,29.65,17,2,19,0.00
2012-9-6,87.8,73.1,56.0,65.9,55.1,45.7,78,55,34,29.96,29.72,21,4,21,0.00
2012-9-7,74.5,68.1,60.0,66.7,57.6,46.3,81,70,50,30.05,29.68,20,4,20,0.00
2012-9-8,81.2,66.2,50.2,48.3,44.3,37.4,80,50,21,30.13,29.91,18,3,20,0.00
2012-9-9,76.0,64.0,52.3,50.8,46.5,42.9,74,54,35,30.19,30.00,14,2,14,0.00
2012-9-10,82.3,67.6,52.9,54.2,50.6,47.1,81,57,33,30.10,29.88,24,7,24,0.00
2012-9-11,91.2,75.6,60.9,55.6,52.5,48.8,74,48,26,29.91,29.80,28,10,29,0.00
2012-9-12,77.7,69.1,55.0,62.9,54.9,42.7,94,62,42,30.21,29.85,28,7,28,0.45
2012-9-13,63.2,55.0,49.7,53.7,50.0,47.8,94,84,63,30.39,30.16,21,3,21,0.63
2012-9-14,74.8,61.3,51.0,51.6,47.1,39.7,87,63,31,30.38,30.26,16,3,17,0.00
2012-9-15,76.2,63.4,48.6,57.4,51.4,44.2,86,66,45,30.26,30.05,21,2,21,0.00
2012-9-16,73.6,63.7,56.5,62.6,59.1,54.2,94,86,65,30.06,29.88,16,3,17,0.00
2012-9-17,62.3,57.9,54.1,61.4,53.1,41.4,97,85,60,30.01,29.86,23,2,24,0.16
2012-9-18,67.7,55.7,44.1,45.0,40.4,31.9,85,59,32,30.11,29.93,11,2,11,0.00
2012-9-19,86.5,65.2,51.6,57.1,46.6,36.1,82,54,25,29.95,29.72,16,5,17,0.00
2012-9-20,73.5,61.5,55.1,46.8,39.8,33.8,57,45,28,30.02,29.90,7,1,7,0.00
2012-9-21,74.8,64.5,56.2,46.4,40.0,32.5,66,43,22,29.90,29.78,20,2,20,0.00
2012-9-22,61.4,54.5,45.5,38.6,31.8,24.9,64,43,26,30.26,29.89,18,3,18,0.00
2012-9-23,67.1,53.4,36.6,37.4,33.1,29.0,81,49,27,30.35,30.19,9,1,9,0.00
2012-9-24,72.3,58.8,46.4,54.6,43.0,36.6,73,57,35,30.19,29.79,19,2,19,0.00
2012-9-25,82.8,68.7,55.8,57.1,51.5,44.9,84,58,30,29.83,29.75,9,2,10,0.00
2012-9-26,73.8,63.2,52.7,46.0,41.2,37.5,65,46,29,30.09,29.81,12,3,12,0.00
2012-9-27,76.1,59.7,44.1,43.1,33.3,21.3,68,42,14,30.19,30.07,8,2,8,0.00
2012-9-28,73.7,63.6,57.0,45.1,43.3,40.8,60,48,32,30.13,30.07,4,0,5,0.00
2012-9-29,77.1,62.8,46.5,51.8,43.3,37.9,85,53,25,30.16,30.00,9,1,9,0.00
2012-9-30,80.3,66.3,51.7,50.7,44.3,40.4,81,48,25,30.00,29.85,3,0,5,0.00
2012-10-1,75.2,64.7,56.8,50.8,44.8,37.1,66,49,32,29.92,29.83,23,4,24,0.00
2012-10-2,72.7,61.3,48.7,43.5,37.1,33.5,59,41,26,29.95,29.82,11,2,12,0.00
2012-10-3,78.3,63.1,45.0,45.4,39.8,34.8,83,47,22,29.90,29.77,24,6,24,0.00
2012-10-4,65.8,52.8,45.8,46.4,37.3,31.2,75,56,43,30.28,29.86,19,3,19,0.00
2012-10-5,49.4,43.6,38.1,33.0,28.9,24.1,74,57,40,30.35,30.24,13,2,13,0.00
2012-10-6,46.9,40.0,32.9,27.0,25.1,22.1,67,55,43,30.38,30.28,17,2,17,0.00
2012-10-7,55.6,43.3,31.8,32.0,26.4,23.9,73,54,32,30.32,30.06,15,4,15,0.00
2012-10-8,68.3,53.3,40.8,38.0,33.8,31.4,71,50,28,30.06,29.81,26,7,26,0.00
2012-10-9,56.7,51.8,40.6,43.4,33.7,25.6,63,50,32,30.13,29.79,19,4,22,0.00
2012-10-10,62.7,48.2,36.0,31.1,28.7,26.2,69,49,28,30.25,30.06,12,3,12,0.00
2012-10-11,68.0,54.5,43.4,43.0,35.9,30.4,66,50,36,30.12,30.01,25,5,25,0.00
2012-10-12,55.3,49.6,38.0,46.8,32.9,20.4,83,54,37,30.34,30.01,19,5,20,0.01
2012-10-13,75.3,63.6,51.9,65.9,60.0,46.9,96,88,69,30.01,29.56,22,7,25,2.09
2012-10-14,65.7,58.7,52.8,54.1,42.9,39.1,94,57,39,29.95,29.64,23,3,23,0.50
2012-10-15,73.0,58.4,44.5,48.4,43.7,39.2,84,60,35,29.97,29.74,14,2,14,0.00
2012-10-16,78.2,64.3,53.8,50.3,48.4,45.5,82,59,32,29.75,29.37,15,4,15,0.00
2012-10-17,66.8,59.3,52.1,55.7,41.6,23.2,91,54,30,29.56,29.30,20,4,22,0.10
2012-10-18,52.6,47.9,43.9,41.8,32.8,24.1,90,59,33,29.61,29.50,25,6,29,0.26
2012-10-19,47.4,45.1,43.3,41.7,40.6,39.3,91,84,78,29.83,29.59,19,3,19,0.07
2012-10-20,65.3,50.3,37.5,46.5,41.5,35.8,95,74,43,29.84,29.68,14,2,17,0.00
2012-10-21,79.5,62.2,46.3,64.7,54.4,42.0,88,76,57,29.77,29.66,24,3,26,0.00
2012-10-22,76.9,68.1,57.9,68.9,64.2,55.9,94,88,75,29.74,29.65,11,2,11,0.04
2012-10-23,81.8,66.4,57.0,65.3,59.4,55.3,96,80,51,29.75,29.58,21,4,21,0.00
2012-10-24,73.5,61.5,50.2,66.3,58.1,48.3,97,89,71,29.71,29.62,18,4,18,0.00
2012-10-25,50.2,40.6,36.0,48.0,36.1,27.5,95,84,71,30.35,29.58,20,6,20,0.51
2012-10-26,43.2,35.9,30.3,28.9,27.3,25.9,85,71,55,30.53,30.34,15,2,15,0.00
2012-10-27,43.9,35.8,28.5,30.0,26.6,23.7,88,70,51,30.44,30.28,8,1,8,0.00
2012-10-28,50.0,40.0,32.1,33.1,30.1,26.9,85,69,48,30.36,30.24,13,2,14,0.00
2012-10-29,55.6,45.3,38.8,33.7,31.1,28.9,74,58,42,30.28,30.10,26,7,26,0.00
2012-10-30,53.0,42.7,34.5,32.9,29.2,26.4,83,61,39,30.12,30.03,13,2,13,0.00
2012-10-31,58.2,46.7,34.3,35.8,31.6,27.2,76,57,41,30.08,29.98,6,1,8,0.00
2012-11-1,62.5,50.7,41.5,43.7,39.5,34.2,84,67,46,29.98,29.92,15,3,15,0.00
2012-11-2,55.4,44.0,36.6,36.7,32.5,29.3,83,66,39,30.06,29.90,18,4,18,0.00
2012-11-3,53.5,42.9,32.7,35.2,32.4,28.8,86,68,45,30.21,30.05,12,2,12,0.00
2012-11-4,58.5,47.4,38.8,44.6,38.4,33.0,93,72,50,30.20,29.99,16,3,16,0.07
2012-11-5,46.0,43.0,40.9,44.1,41.1,39.6,95,93,89,30.12,29.99,17,3,17,0.01
2012-11-6,56.2,47.1,39.3,40.6,35.3,31.1,95,66,39,30.07,29.94,20,5,23,0.00
2012-11-7,52.7,43.0,33.9,34.7,32.1,29.3,84,66,46,30.19,30.06,9,3,10,0.00
2012-11-8,65.3,50.0,36.7,41.8,37.4,31.7,86,64,39,30.06,29.84,20,6,20,0.00
2012-11-9,68.9,57.7,43.8,57.8,49.6,39.2,87,75,58,29.86,29.64,15,4,15,0.00
2012-11-10,73.8,66.6,57.3,59.1,57.0,53.4,92,72,59,29.64,29.46,41,16,41,0.39
2012-11-11,57.3,31.7,25.4,55.0,25.4,16.1,94,78,57,30.21,29.56,20,5,20,0.22
2012-11-12,40.9,31.3,22.7,21.8,18.1,15.8,76,59,41,30.42,30.21,21,4,22,0.00
2012-11-13,52.6,39.3,24.5,34.4,26.5,18.3,80,61,34,30.43,30.29,14,4,14,0.00
2012-11-14,56.4,45.5,35.7,32.8,29.4,26.6,70,54,34,30.35,30.21,20,6,20,0.00
2012-11-15,57.6,46.6,38.5,38.5,33.2,30.5,77,60,41,30.42,30.19,10,2,11,0.00
2012-11-16,54.9,41.5,27.6,36.9,30.7,24.0,86,67,46,30.48,30.33,13,3,13,0.00
2012-11-17,59.2,51.2,36.5,39.3,35.5,30.0,86,56,41,30.32,30.18,28,11,28,0.00
2012-11-18,62.2,51.9,41.1,41.1,34.8,29.3,67,52,39,30.20,30.05,24,9,24,0.00
2012-11-19,62.4,52.3,42.9,45.8,40.5,36.9,84,65,45,30.09,30.00,19,5,19,0.00
2012-11-20,61.4,48.0,37.7,43.1,37.4,33.9,86,69,42,30.23,30.09,8,3,9,0.00
2012-11-21,71.6,57.7,44.8,48.2,42.4,37.2,75,58,38,30.15,29.82,30,10,30,0.00
2012-11-22,58.2,51.9,41.0,49.1,40.4,31.3,73,65,56,30.22,29.71,22,6,22,0.00
2012-11-23,41.2,30.2,23.7,31.3,15.8,10.7,69,55,41,30.50,30.20,27,6,27,0.00
2012-11-24,43.4,33.1,20.4,26.0,18.9,10.8,85,57,40,30.44,29.89,22,6,22,0.00
2012-11-25,43.6,38.0,30.7,30.2,27.2,25.2,82,65,56,30.15,29.88,13,4,13,0.00
2012-11-26,32.9,31.5,29.6,27.4,25.3,21.9,88,78,68,30.42,30.15,17,6,17,0.00
2012-11-27,37.6,24.5,15.3,25.4,16.8,11.1,84,73,57,30.44,30.28,18,6,18,0.00
2012-11-28,48.0,39.2,24.1,31.0,27.4,20.8,90,64,40,30.42,30.13,17,5,17,0.00
2012-11-29,54.0,42.2,32.8,39.9,34.3,28.6,86,74,58,30.14,29.93,11,3,11,0.00
2012-11-30,48.7,39.1,32.4,36.6,32.7,27.8,89,78,61,30.09,29.95,6,1,8,0.00
2012-12-1,62.3,51.7,37.1,56.8,48.9,32.7,97,90,80,29.99,29.74,14,3,15,0.00
2012-12-2,55.2,43.8,36.6,50.1,42.1,35.5,97,94,79,30.01,29.80,13,2,13,0.02
2012-12-3,61.9,53.4,43.3,58.0,44.1,28.5,97,73,48,30.06,29.61,20,5,24,0.00
2012-12-4,56.7,42.9,33.4,31.2,26.2,23.7,70,52,32,30.30,30.05,12,2,12,0.00
2012-12-5,58.9,44.0,31.1,33.0,28.2,24.4,83,57,28,30.32,29.95,29,8,29,0.00
2012-12-6,49.9,45.3,42.2,36.3,33.4,31.0,73,63,52,29.99,29.85,23,6,23,0.00
2012-12-7,47.1,39.8,33.4,34.3,29.8,26.5,86,68,49,29.98,29.87,14,4,15,0.00
2012-12-8,40.0,33.2,25.6,33.3,28.4,23.1,91,83,67,30.02,29.90,12,3,12,0.00
2012-12-9,37.1,27.9,16.3,35.6,21.8,8.6,95,78,64,30.14,29.85,24,6,24,0.09
2012-12-10,26.7,18.0,7.6,9.5,6.4,1.9,78,61,44,30.17,30.00,22,4,22,0.00
2012-12-11,43.7,32.3,20.3,23.1,17.3,7.1,73,54,40,30.09,29.99,19,5,19,0.00
2012-12-12,52.1,37.9,27.4,22.3,18.5,15.3,67,47,26,30.09,29.98,33,10,34,0.00
2012-12-13,52.1,40.0,33.9,26.5,20.0,15.7,51,44,35,30.08,30.01,19,6,20,0.00
2012-12-14,53.6,47.1,30.4,40.6,35.0,23.8,91,63,52,29.99,29.63,21,8,23,0.13
2012-12-15,47.9,42.7,34.3,45.1,40.0,31.4,95,90,83,29.71,29.43,25,7,25,0.26
2012-12-16,37.6,33.2,29.4,32.6,29.8,26.5,93,87,79,29.83,29.71,11,3,12,0.00
2012-12-17,34.4,28.2,24.3,30.5,26.3,22.8,96,92,83,29.83,29.64,11,2,11,0.00
2012-12-18,42.4,35.3,27.9,34.8,30.8,26.5,96,84,73,29.89,29.50,23,3,23,0.00
2012-12-19,36.9,32.6,30.0,33.4,30.6,28.2,96,92,85,29.92,29.67,30,5,30,0.09
2012-12-20,31.6,22.5,19.6,30.4,19.1,14.1,96,87,71,30.27,29.66,38,10,38,0.00
2012-12-21,31.2,23.7,15.8,22.4,15.9,9.5,81,72,58,30.40,30.23,11,2,11,0.01
2012-12-22,39.2,27.9,20.2,29.4,21.3,15.7,87,76,62,30.23,29.94,15,3,15,0.02
2012-12-23,23.6,18.3,12.4,18.9,14.1,8.7,90,84,77,30.09,30.00,13,4,13,0.00
2012-12-24,19.5,15.8,11.4,14.9,10.8,6.3,90,80,72,30.31,30.06,16,6,17,0.00
2012-12-25,14.1,9.7,3.7,9.1,4.4,-1.1,84,78,73,30.53,30.29,23,7,23,0.00
2012-12-26,19.7,11.2,3.8,11.7,6.2,-0.0,85,80,69,30.42,30.25,14,3,14,0.00
2012-12-27,25.5,20.2,11.6,21.8,16.5,8.4,89,86,81,30.25,30.02,17,3,17,0.00
2012-12-28,25.4,22.3,16.7,21.9,18.9,13.2,92,87,77,30.16,30.00,13,3,14,0.00
2012-12-29,32.8,21.4,12.3,22.9,15.6,9.5,89,78,65,30.30,30.16,12,4,12,0.00
2012-12-30,45.2,36.6,20.7,27.7,23.8,16.6,85,61,42,30.27,30.02,35,8,35,0.00
2012-12-31,29.7,21.3,15.4,21.5,16.6,12.0,91,82,71,30.29,30.11,13,5,19,0.00
2013-1-1,18.3,12.7,4.6,13.1,6.0,0.3,86,75,55,30.40,30.22,10,4,10,0.00